createdAt,value
2022-08-12T00:00:14.429Z,5.05
2022-08-12T00:02:41.123Z,5.26
2022-08-12T00:05:07.983Z,5.33
2022-08-12T00:07:34.713Z,5.20
2022-08-12T00:10:01.258Z,5.08
2022-08-12T00:12:27.798Z,5.39
2022-08-12T00:14:54.590Z,5.34
2022-08-12T00:17:23.223Z,5.36
2022-08-12T00:19:50.007Z,5.71
2022-08-12T00:22:16.559Z,5.35
2022-08-12T00:24:43.102Z,5.16
2022-08-12T00:27:09.623Z,5.36
2022-08-12T00:29:36.287Z,5.42
2022-08-12T00:32:02.842Z,5.09
2022-08-12T00:34:30.301Z,5.21
2022-08-12T00:37:03.953Z,5.06
2022-08-12T00:39:40.282Z,4.88
2022-08-12T00:42:08.030Z,4.86
2022-08-12T00:44:34.917Z,4.87
2022-08-12T00:47:01.427Z,4.80
2022-08-12T00:49:27.992Z,5.30
2022-08-12T00:51:54.548Z,4.82
2022-08-12T00:54:24.610Z,4.88
2022-08-12T00:56:51.263Z,4.92
2022-08-12T00:59:18.268Z,4.65
2022-08-12T01:02:04.306Z,4.95
2022-08-12T01:04:31.471Z,4.72
2022-08-12T01:06:58.496Z,4.69
2022-08-12T01:09:25.006Z,4.60
2022-08-12T01:11:51.560Z,4.92
2022-08-12T01:14:18.202Z,4.88
2022-08-12T01:16:44.995Z,5.03
2022-08-12T01:19:12.555Z,4.96
2022-08-12T01:21:41.893Z,5.13
2022-08-12T01:24:30.328Z,5.62
2022-08-12T01:26:55.246Z,5.68
2022-08-12T01:29:21.903Z,5.64
2022-08-12T01:31:48.736Z,5.35
2022-08-12T01:34:35.735Z,5.55
2022-08-12T01:37:01.830Z,5.48
2022-08-12T01:39:28.537Z,5.41
2022-08-12T01:41:55.961Z,5.18
2022-08-12T01:44:22.452Z,5.16
2022-08-12T01:46:49.297Z,5.22
2022-08-12T01:49:15.785Z,5.25
2022-08-12T01:52:21.022Z,5.35
2022-08-12T01:54:35.126Z,5.44
2022-08-12T01:57:01.762Z,5.54
2022-08-12T01:59:28.404Z,5.55
2022-08-12T02:01:55.108Z,5.61
2022-08-12T02:04:22.692Z,5.44
2022-08-12T02:06:49.407Z,5.77
2022-08-12T02:09:15.859Z,5.60
2022-08-12T02:11:42.469Z,5.88
2022-08-12T02:14:09.005Z,5.59
2022-08-12T02:16:35.531Z,5.56
2022-08-12T02:19:02.421Z,5.56
2022-08-12T02:21:39.541Z,5.25
2022-08-12T02:24:06.304Z,5.36
2022-08-12T02:26:32.989Z,5.44
2022-08-12T02:28:59.838Z,5.64
2022-08-12T02:31:26.471Z,5.86
2022-08-12T02:33:53.081Z,5.10
2022-08-12T02:36:19.962Z,5.32
2022-08-12T02:38:48.806Z,5.20
2022-08-12T02:41:15.261Z,5.40
2022-08-12T02:43:41.798Z,5.29
2022-08-12T02:46:14.140Z,5.33
2022-08-12T02:48:41.524Z,5.31
2022-08-12T02:51:18.835Z,5.32
2022-08-12T02:53:45.394Z,5.45
2022-08-12T02:56:35.339Z,5.40
2022-08-12T02:59:01.962Z,5.45
2022-08-12T03:01:28.695Z,5.72
2022-08-12T03:03:55.619Z,5.54
2022-08-12T03:06:22.185Z,5.56
2022-08-12T03:08:53.553Z,5.60
2022-08-12T03:11:20.470Z,5.80
2022-08-12T03:13:47.039Z,5.73
2022-08-12T03:16:13.539Z,6.14
2022-08-12T03:18:44.379Z,5.86
2022-08-12T03:21:12.711Z,6.08
2022-08-12T03:23:39.280Z,6.22
2022-08-12T03:26:05.844Z,6.15
2022-08-12T03:28:32.421Z,6.56
2022-08-12T03:30:58.958Z,6.31
2022-08-12T03:33:25.642Z,6.35
2022-08-12T03:35:52.418Z,6.50
2022-08-12T03:38:18.981Z,6.14
2022-08-12T03:40:46.566Z,6.35
2022-08-12T03:43:14.579Z,6.48
2022-08-12T03:45:46.373Z,6.30
2022-08-12T03:48:18.895Z,6.26
2022-08-12T03:50:46.041Z,6.17
2022-08-12T03:53:12.746Z,6.42
2022-08-12T03:55:39.491Z,6.57
2022-08-12T03:58:06.291Z,6.39
2022-08-12T04:03:23.073Z,6.37
2022-08-12T04:05:55.973Z,6.34
2022-08-12T04:08:23.024Z,6.24
2022-08-12T04:10:49.556Z,6.13
2022-08-12T04:13:36.068Z,6.01
2022-08-12T04:16:02.628Z,6.01
2022-08-12T04:18:29.343Z,6.55
2022-08-12T04:20:55.899Z,6.41
2022-08-12T04:23:22.713Z,6.51
2022-08-12T04:25:49.204Z,6.41
2022-08-12T04:28:15.710Z,6.18
2022-08-12T04:30:42.931Z,6.32
2022-08-12T04:33:09.388Z,6.54
2022-08-12T04:35:35.961Z,6.09
2022-08-12T04:38:02.759Z,5.99
2022-08-12T04:40:29.839Z,6.18
2022-08-12T04:42:56.472Z,6.11
2022-08-12T04:45:23.122Z,6.14
2022-08-12T04:47:49.673Z,6.22
2022-08-12T04:50:34.285Z,6.14
2022-08-12T04:53:03.633Z,6.34
2022-08-12T04:55:30.479Z,6.45
2022-08-12T04:57:57.340Z,6.12
2022-08-12T05:00:25.041Z,6.28
2022-08-12T05:02:51.641Z,6.30
2022-08-12T05:05:18.242Z,6.37
2022-08-12T05:07:47.809Z,6.69
2022-08-12T05:10:21.211Z,7.47
2022-08-12T05:12:59.763Z,6.57
2022-08-12T05:15:29.177Z,6.53
2022-08-12T05:17:56.343Z,6.22
2022-08-12T05:20:27.090Z,6.00
2022-08-12T05:22:57.229Z,6.26
2022-08-12T05:25:27.843Z,5.72
2022-08-12T05:27:59.064Z,5.96
2022-08-12T05:30:26.737Z,6.16
2022-08-12T05:32:53.771Z,6.30
2022-08-12T05:35:22.432Z,6.16
2022-08-12T05:37:49.407Z,5.86
2022-08-12T05:40:15.931Z,5.85
2022-08-12T05:42:42.803Z,6.44
2022-08-12T05:45:09.484Z,6.07
2022-08-12T05:47:52.669Z,5.75
2022-08-12T05:50:20.611Z,5.69
2022-08-12T05:52:54.388Z,6.25
2022-08-12T05:55:21.194Z,5.72
2022-08-12T05:57:48.091Z,5.84
2022-08-12T06:00:14.601Z,5.54
2022-08-12T06:02:41.420Z,5.85
2022-08-12T06:05:08.178Z,5.49
2022-08-12T06:08:02.328Z,5.78
2022-08-12T06:10:32.118Z,6.15
2022-08-12T06:12:59.728Z,6.23
2022-08-12T06:15:28.412Z,6.16
2022-08-12T06:17:55.299Z,5.77
2022-08-12T06:20:27.659Z,6.49
2022-08-12T06:22:56.534Z,6.59
2022-08-12T06:25:24.074Z,6.33
2022-08-12T06:28:07.368Z,6.35
2022-08-12T06:30:37.859Z,6.60
2022-08-12T06:33:18.462Z,6.94
2022-08-12T06:35:49.891Z,6.75
2022-08-12T06:38:17.023Z,7.13
2022-08-12T06:40:43.531Z,7.29
2022-08-12T06:43:10.076Z,7.01
2022-08-12T06:45:46.061Z,6.88
2022-08-12T06:48:14.485Z,6.64
2022-08-12T06:50:41.050Z,7.22
2022-08-12T06:53:07.584Z,7.11
2022-08-12T06:55:35.125Z,7.02
2022-08-12T06:58:07.474Z,6.56
2022-08-12T07:00:36.514Z,6.82
2022-08-12T07:03:16.326Z,6.73
2022-08-12T07:05:49.543Z,6.85
2022-08-12T07:08:17.573Z,7.00
2022-08-12T07:10:44.226Z,6.98
2022-08-12T07:13:10.832Z,6.63
2022-08-12T07:15:37.494Z,6.45
2022-08-12T07:18:04.346Z,6.36
2022-08-12T07:20:51.660Z,6.33
2022-08-12T07:23:18.049Z,6.47
2022-08-12T07:25:44.828Z,6.31
2022-08-12T07:28:16.119Z,6.55
2022-08-12T07:30:43.335Z,6.82
2022-08-12T07:33:10.126Z,6.36
2022-08-12T07:35:39.514Z,6.32
2022-08-12T07:38:07.030Z,6.62
2022-08-12T07:40:33.719Z,6.55
2022-08-12T07:43:00.417Z,6.46
2022-08-12T07:45:27.139Z,6.34
2022-08-12T07:47:53.768Z,6.19
2022-08-12T07:50:23.743Z,6.10
2022-08-12T07:52:50.776Z,6.37
2022-08-12T07:55:17.626Z,6.93
2022-08-12T07:57:44.326Z,6.65
2022-08-12T08:00:11.127Z,6.34
2022-08-12T08:02:37.896Z,6.68
2022-08-12T08:05:04.556Z,6.65
2022-08-12T08:07:31.421Z,7.13
2022-08-12T08:09:59.340Z,7.09
2022-08-12T08:12:26.260Z,6.97
2022-08-12T08:14:53.770Z,7.15
2022-08-12T08:17:20.455Z,6.73
2022-08-12T08:20:03.229Z,6.90
2022-08-12T08:22:40.988Z,6.75
2022-08-12T08:25:34.774Z,6.69
2022-08-12T08:27:56.050Z,6.80
2022-08-12T08:30:22.530Z,6.32
2022-08-12T08:32:49.028Z,6.06
2022-08-12T08:35:15.608Z,6.72
2022-08-12T08:37:43.269Z,6.51
2022-08-12T08:40:09.882Z,6.10
2022-08-12T08:42:36.436Z,6.53
2022-08-12T08:45:05.520Z,6.53
2022-08-12T08:47:32.380Z,6.66
2022-08-12T08:49:59.206Z,6.55
2022-08-12T08:52:40.258Z,6.53
2022-08-12T08:55:07.493Z,7.02
2022-08-12T08:57:43.917Z,6.91
2022-08-12T09:00:11.090Z,6.97
2022-08-12T09:02:49.433Z,6.42
2022-08-12T09:05:28.216Z,6.85
2022-08-12T09:08:19.256Z,6.42
2022-08-12T09:10:49.805Z,6.41
2022-08-12T09:16:05.978Z,6.67
2022-08-12T09:18:33.554Z,6.43
2022-08-12T09:21:02.014Z,6.88
2022-08-12T09:24:00.274Z,6.41
2022-08-12T09:26:16.463Z,6.64
2022-08-12T09:28:44.268Z,6.64
2022-08-12T09:32:03.658Z,6.98
2022-08-12T09:34:28.389Z,6.30
2022-08-12T09:37:00.029Z,6.82
2022-08-12T09:40:02.062Z,6.77
2022-08-12T09:42:40.523Z,6.83
2022-08-12T09:45:17.904Z,7.28
2022-08-12T09:47:46.230Z,6.97
2022-08-12T09:50:26.656Z,6.97
2022-08-12T09:52:56.491Z,7.03
2022-08-12T09:56:06.149Z,7.02
2022-08-12T09:58:58.637Z,6.87
2022-08-12T10:00:59.232Z,7.28
2022-08-12T10:03:34.332Z,7.14
2022-08-12T10:06:31.760Z,7.29
2022-08-12T10:09:02.651Z,7.28
2022-08-12T10:11:41.317Z,7.43
2022-08-12T10:14:17.093Z,7.32
2022-08-12T10:16:43.775Z,7.21
2022-08-12T10:19:17.125Z,7.40
2022-08-12T10:21:44.739Z,6.71
2022-08-12T10:24:11.294Z,7.21
2022-08-12T10:26:39.370Z,12.23
2022-08-12T10:30:01.773Z,6.82
2022-08-12T10:32:20.654Z,6.94
2022-08-12T10:34:39.730Z,7.17
2022-08-12T10:38:35.879Z,7.10
2022-08-12T10:40:10.149Z,7.03
2022-08-12T10:42:39.330Z,6.91
2022-08-12T10:45:14.297Z,6.78
2022-08-12T10:48:07.116Z,6.91
2022-08-12T10:51:01.114Z,6.99
2022-08-12T10:53:19.946Z,7.21
2022-08-12T10:55:48.073Z,6.59
2022-08-12T10:58:27.888Z,6.59
2022-08-12T11:01:49.667Z,6.56
2022-08-12T11:04:35.806Z,7.30
2022-08-12T11:07:09.933Z,6.62
2022-08-12T11:09:55.927Z,6.60
2022-08-12T11:12:54.770Z,6.89
2022-08-12T11:14:54.749Z,6.64
2022-08-12T11:17:34.337Z,6.33
2022-08-12T11:20:14.945Z,6.71
2022-08-12T11:22:57.629Z,6.50
2022-08-12T11:25:25.634Z,6.53
2022-08-12T11:28:13.626Z,6.31
2022-08-12T11:30:40.435Z,5.82
2022-08-12T11:33:11.790Z,7.03
2022-08-12T11:35:56.253Z,6.20
2022-08-12T11:38:26.724Z,6.15
2022-08-12T11:40:54.076Z,6.22
2022-08-12T11:43:22.792Z,6.29
2022-08-12T11:45:53.366Z,6.27
2022-08-12T11:48:26.768Z,6.23
2022-08-12T11:50:53.932Z,6.54
2022-08-12T11:53:58.376Z,6.64
2022-08-12T11:56:17.647Z,6.43
2022-08-12T12:02:00.986Z,6.55
2022-08-12T12:04:30.735Z,6.51
2022-08-12T12:07:07.499Z,6.46
2022-08-12T12:09:52.722Z,5.95
2022-08-12T12:12:21.448Z,5.65
2022-08-12T12:14:54.603Z,5.68
2022-08-12T12:17:22.522Z,5.65
2022-08-12T12:19:49.213Z,5.95
2022-08-12T12:22:26.832Z,6.21
2022-08-12T12:24:54.123Z,5.51
2022-08-12T12:27:58.461Z,6.18
2022-08-12T12:30:18.783Z,5.56
2022-08-12T12:32:55.631Z,5.77
2022-08-12T12:36:18.238Z,5.68
2022-08-12T12:38:12.456Z,5.80
2022-08-12T12:40:39.909Z,5.35
2022-08-12T12:43:06.978Z,5.58
2022-08-12T12:45:33.872Z,5.82
2022-08-12T12:48:02.153Z,5.82
2022-08-12T12:50:35.208Z,5.62
2022-08-12T12:53:05.275Z,5.55
2022-08-12T12:55:32.626Z,5.74
2022-08-12T12:58:02.740Z,5.94
2022-08-12T13:00:29.314Z,5.51
2022-08-12T13:02:57.109Z,5.60
2022-08-12T13:05:27.847Z,5.52
2022-08-12T13:08:01.410Z,5.86
2022-08-12T13:10:30.684Z,5.14
2022-08-12T13:12:58.790Z,4.99
2022-08-12T13:15:45.285Z,5.05
2022-08-12T13:18:12.084Z,5.20
2022-08-12T13:20:43.126Z,5.32
2022-08-12T13:23:36.015Z,6.27
2022-08-12T13:25:57.240Z,4.97
2022-08-12T13:28:23.872Z,4.89
2022-08-12T13:30:55.180Z,4.56
2022-08-12T13:33:21.753Z,4.64
2022-08-12T13:36:05.045Z,4.61
2022-08-12T13:38:34.912Z,5.14
2022-08-12T13:41:02.473Z,4.55
2022-08-12T13:43:40.947Z,4.83
2022-08-12T13:46:11.062Z,4.32
2022-08-12T13:48:39.898Z,4.60
2022-08-12T13:51:11.995Z,4.59
2022-08-12T13:53:55.070Z,4.59
2022-08-12T13:56:25.433Z,4.60
2022-08-12T13:59:01.056Z,4.79
2022-08-12T14:01:27.885Z,4.46
2022-08-12T14:03:54.477Z,4.46
2022-08-12T14:06:21.307Z,4.59
2022-08-12T14:08:49.778Z,4.25
2022-08-12T14:11:16.692Z,4.53
2022-08-12T14:14:06.449Z,4.40
2022-08-12T14:16:37.754Z,4.38
2022-08-12T14:19:15.308Z,4.25
2022-08-12T14:21:59.302Z,4.43
2022-08-12T14:24:27.024Z,4.47
2022-08-12T14:26:53.847Z,4.10
2022-08-12T14:29:55.810Z,4.13
2022-08-12T14:32:16.608Z,4.36
2022-08-12T14:34:44.169Z,4.31
2022-08-12T14:37:12.952Z,4.25
2022-08-12T14:39:59.198Z,4.23
2022-08-12T14:42:26.060Z,4.09
2022-08-12T14:45:00.074Z,4.26
2022-08-12T14:47:29.234Z,4.39
2022-08-12T14:50:40.926Z,4.27
2022-08-12T14:55:24.740Z,4.44
2022-08-12T14:58:23.604Z,4.18
2022-08-12T15:00:52.147Z,4.20
2022-08-12T15:03:19.705Z,4.13
2022-08-12T15:06:06.157Z,4.19
2022-08-12T15:08:35.808Z,4.12
2022-08-12T15:11:02.815Z,4.13
2022-08-12T15:13:30.361Z,4.02
2022-08-12T15:15:58.985Z,4.60
2022-08-12T15:18:25.617Z,3.99
2022-08-12T15:20:52.438Z,4.51
2022-08-12T15:23:21.753Z,4.24
2022-08-12T15:25:48.569Z,4.05
2022-08-12T15:28:20.659Z,4.03
2022-08-12T15:30:48.570Z,4.30
2022-08-12T15:33:18.825Z,3.84
2022-08-12T15:35:52.010Z,3.88
2022-08-12T15:38:21.727Z,3.98
2022-08-12T15:40:48.776Z,3.87
2022-08-12T15:43:15.241Z,3.90
2022-08-12T15:46:02.011Z,3.94
2022-08-12T15:48:30.399Z,4.06
2022-08-12T15:50:59.657Z,4.17
2022-08-12T15:53:28.782Z,4.17
2022-08-12T15:56:00.677Z,4.13
2022-08-12T15:58:28.090Z,3.58
2022-08-12T16:01:00.362Z,3.49
2022-08-12T16:03:27.081Z,3.21
2022-08-12T16:06:18.989Z,2.94
2022-08-12T16:08:57.550Z,2.50
2022-08-12T16:11:26.935Z,2.40
2022-08-12T16:13:53.791Z,2.40
2022-08-12T16:16:23.575Z,2.34
2022-08-12T16:18:51.132Z,2.36
2022-08-12T16:21:51.760Z,2.53
2022-08-12T16:24:04.533Z,2.72
2022-08-12T16:26:33.550Z,2.52
2022-08-12T16:29:15.382Z,1.94
2022-08-12T16:31:42.991Z,2.17
2022-08-12T16:34:10.934Z,2.05
2022-08-12T16:36:53.541Z,2.11
2022-08-12T16:39:20.117Z,1.93
2022-08-12T16:41:46.827Z,1.99
2022-08-12T16:44:13.753Z,1.77
2022-08-12T16:46:57.587Z,1.78
2022-08-12T16:49:25.042Z,1.94
2022-08-12T16:51:52.296Z,1.80
2022-08-12T16:54:19.107Z,1.83
2022-08-12T16:56:55.371Z,1.93
2022-08-12T16:59:24.193Z,1.90
2022-08-12T17:01:52.704Z,1.97
2022-08-12T17:04:24.937Z,2.00
2022-08-12T17:06:51.620Z,1.97
2022-08-12T17:09:18.440Z,2.16
2022-08-12T17:11:49.251Z,2.17
2022-08-12T17:14:16.399Z,1.95
2022-08-12T17:16:43.056Z,1.89
2022-08-12T17:19:12.279Z,1.84
2022-08-12T17:21:41.351Z,2.08
2022-08-12T17:24:18.629Z,1.81
2022-08-12T17:26:49.485Z,1.92
2022-08-12T17:29:16.800Z,2.06
2022-08-12T17:32:00.193Z,1.87
2022-08-12T17:34:29.675Z,1.96
2022-08-12T17:36:56.261Z,1.87
2022-08-12T17:39:23.714Z,1.75
2022-08-12T17:42:11.101Z,1.77
2022-08-12T17:44:57.359Z,2.01
2022-08-12T17:47:35.643Z,1.97
2022-08-12T17:50:04.411Z,1.82
2022-08-12T17:52:33.520Z,1.86
2022-08-12T17:55:00.254Z,1.87
2022-08-12T17:57:27.110Z,1.92
2022-08-12T17:59:53.660Z,1.86
2022-08-12T18:02:30.031Z,1.75
2022-08-12T18:05:09.517Z,1.78
2022-08-12T18:07:37.232Z,1.97
2022-08-12T18:10:06.213Z,2.03
2022-08-12T18:12:35.590Z,2.32
2022-08-12T18:15:02.418Z,2.16
2022-08-12T18:17:39.374Z,2.29
2022-08-12T18:20:07.965Z,2.11
2022-08-12T18:22:39.177Z,2.21
2022-08-12T18:25:24.953Z,2.07
2022-08-12T18:28:15.319Z,2.34
2022-08-12T18:30:41.056Z,2.24
2022-08-12T18:33:08.000Z,2.14
2022-08-12T18:35:47.978Z,2.17
2022-08-12T18:38:20.441Z,2.34
2022-08-12T18:40:48.347Z,2.28
2022-08-12T18:43:15.664Z,2.55
2022-08-12T18:45:47.277Z,2.47
2022-08-12T18:48:23.845Z,2.44
2022-08-12T18:50:50.496Z,2.96
2022-08-12T18:54:05.269Z,2.60
2022-08-12T18:56:03.878Z,2.32
2022-08-12T18:58:30.602Z,2.42
2022-08-12T19:00:57.467Z,2.13
2022-08-12T19:03:39.695Z,2.57
2022-08-12T19:06:07.074Z,2.47
2022-08-12T19:08:33.590Z,2.17
2022-08-12T19:11:02.522Z,2.31
2022-08-12T19:13:33.594Z,2.16
2022-08-12T19:16:01.613Z,2.41
2022-08-12T19:18:29.997Z,2.21
2022-08-12T19:20:58.415Z,2.28
2022-08-12T19:23:25.369Z,2.11
2022-08-12T19:26:02.921Z,2.07
2022-08-12T19:28:34.136Z,2.19
2022-08-12T19:31:01.591Z,2.11
2022-08-12T19:33:29.436Z,2.04
2022-08-12T19:36:08.178Z,2.10
2022-08-12T19:38:56.738Z,2.33
2022-08-12T19:41:23.829Z,2.19
2022-08-12T19:44:17.065Z,2.01
2022-08-12T19:46:51.871Z,2.09
2022-08-12T19:49:22.524Z,2.07
2022-08-12T19:51:49.144Z,1.86
2022-08-12T19:54:18.081Z,1.87
2022-08-12T19:56:45.982Z,2.23
2022-08-12T19:59:18.759Z,2.03
2022-08-12T20:02:02.580Z,2.03
2022-08-12T20:04:32.131Z,2.19
2022-08-12T20:06:58.725Z,2.04
2022-08-12T20:09:26.080Z,2.13
2022-08-12T20:12:12.406Z,2.01
2022-08-12T20:14:42.177Z,2.04
2022-08-12T20:17:08.809Z,2.37
2022-08-12T20:20:01.450Z,2.15
2022-08-12T20:22:24.291Z,2.30
2022-08-12T20:24:56.585Z,2.20
2022-08-12T20:27:29.449Z,2.18
2022-08-12T20:30:10.214Z,2.30
2022-08-12T20:32:37.602Z,2.07
2022-08-12T20:38:07.637Z,2.02
2022-08-12T20:40:50.105Z,2.16
2022-08-12T20:43:16.718Z,2.21
2022-08-12T20:45:57.214Z,2.22
2022-08-12T20:48:29.379Z,2.27
2022-08-12T20:51:04.444Z,1.99
2022-08-12T20:53:54.154Z,2.01
2022-08-12T20:56:19.663Z,2.06
2022-08-12T20:58:48.752Z,2.18
2022-08-12T21:01:19.690Z,1.98
2022-08-12T21:03:58.198Z,2.36
2022-08-12T21:06:26.603Z,2.25
2022-08-12T21:08:53.222Z,2.26
2022-08-12T21:11:19.913Z,2.27
2022-08-12T21:13:49.155Z,2.15
2022-08-12T21:16:16.087Z,2.26
2022-08-12T21:19:02.505Z,2.17
2022-08-12T21:21:40.429Z,2.29
2022-08-12T21:24:16.758Z,2.16
2022-08-12T21:26:43.752Z,2.19
2022-08-12T21:29:20.454Z,2.17
2022-08-12T21:32:37.460Z,2.17
2022-08-12T21:34:33.558Z,2.36
2022-08-12T21:37:00.114Z,2.11
2022-08-12T21:39:35.827Z,2.20
2022-08-12T21:42:05.324Z,2.48
2022-08-12T21:45:48.129Z,2.55
2022-08-12T21:47:22.339Z,2.21
2022-08-12T21:49:55.603Z,2.27
2022-08-12T21:52:35.010Z,2.40
2022-08-12T21:55:02.599Z,2.42
2022-08-12T21:57:29.261Z,2.31
2022-08-12T21:59:55.880Z,2.17
2022-08-12T22:02:23.380Z,2.30
2022-08-12T22:04:57.551Z,2.13
2022-08-12T22:07:24.087Z,2.22
2022-08-12T22:09:56.891Z,2.33
2022-08-12T22:12:24.116Z,2.40
2022-08-12T22:14:50.686Z,2.36
2022-08-12T22:17:20.261Z,2.46
2022-08-12T22:19:47.153Z,2.12
2022-08-12T22:22:14.057Z,2.21
2022-08-12T22:24:41.353Z,2.23
2022-08-12T22:27:31.414Z,2.35
2022-08-12T22:29:54.595Z,2.18
2022-08-12T22:32:21.207Z,2.29
2022-08-12T22:34:52.826Z,2.21
2022-08-12T22:37:20.428Z,2.27
2022-08-12T22:39:47.097Z,2.10
2022-08-12T22:42:16.018Z,2.47
2022-08-12T22:44:54.958Z,2.23
2022-08-12T22:47:51.158Z,2.08
2022-08-12T22:50:08.332Z,2.13
2022-08-12T22:52:36.552Z,2.15
2022-08-12T22:55:05.589Z,2.07
2022-08-12T22:57:49.794Z,2.28
2022-08-12T23:00:24.727Z,2.32
2022-08-12T23:02:59.323Z,2.35
2022-08-12T23:05:56.826Z,2.29
2022-08-12T23:08:17.924Z,2.07
2022-08-12T23:10:45.065Z,2.14
2022-08-12T23:13:11.953Z,2.25
2022-08-12T23:15:41.031Z,2.30
2022-08-12T23:18:14.448Z,2.28
2022-08-12T23:20:43.518Z,2.36
2022-08-12T23:23:11.533Z,2.45
2022-08-12T23:25:55.204Z,2.36
2022-08-12T23:28:29.435Z,2.65
2022-08-12T23:30:56.839Z,2.23
2022-08-12T23:34:00.600Z,2.41
2022-08-12T23:36:12.579Z,2.34
2022-08-12T23:38:39.371Z,2.31
2022-08-12T23:41:08.805Z,2.51
2022-08-12T23:43:41.015Z,2.32
2022-08-12T23:46:19.247Z,2.08
2022-08-12T23:48:48.073Z,2.07
2022-08-12T23:51:22.635Z,2.21
2022-08-12T23:53:51.216Z,2.28
2022-08-12T23:56:18.600Z,2.31
2022-08-12T23:58:46.755Z,2.29
